sensor_id;sensor_type;location;lat;lon;timestamp;pressure;altitude;pressure_sealevel;temperature;humidity
37298;BME280;30517;51.932;4.278;2023-02-28T00:00:14;161044.75;;;35.18;100.00
37298;BME280;30517;51.932;4.278;2023-02-28T00:02:55;161088.16;;;35.17;100.00
37298;BME280;30517;51.932;4.278;2023-02-28T00:05:36;161528.16;;;35.07;100.00
37298;BME280;30517;51.932;4.278;2023-02-28T00:08:17;161655.13;;;35.04;100.00
37298;BME280;30517;51.932;4.278;2023-02-28T00:11:16;161382.22;;;35.11;100.00
37298;BME280;30517;51.932;4.278;2023-02-28T00:13:57;161472.03;;;35.08;100.00
37298;BME280;30517;51.932;4.278;2023-02-28T00:16:39;161690.66;;;35.03;100.00
37298;BME280;30517;51.932;4.278;2023-02-28T00:19:19;161562.28;;;35.06;100.00
37298;BME280;30517;51.932;4.278;2023-02-28T00:22:00;161637.50;;;35.05;100.00
37298;BME280;30517;51.932;4.278;2023-02-28T00:24:41;161699.84;;;35.04;100.00
37298;BME280;30517;51.932;4.278;2023-02-28T00:27:22;161738.59;;;35.03;100.00
37298;BME280;30517;51.932;4.278;2023-02-28T00:30:04;162017.09;;;34.98;100.00
37298;BME280;30517;51.932;4.278;2023-02-28T00:32:45;161850.19;;;35.01;100.00
37298;BME280;30517;51.932;4.278;2023-02-28T00:35:26;161857.03;;;35.01;100.00
37298;BME280;30517;51.932;4.278;2023-02-28T00:38:07;162085.34;;;34.97;100.00
37298;BME280;30517;51.932;4.278;2023-02-28T00:40:48;162128.50;;;34.96;100.00
37298;BME280;30517;51.932;4.278;2023-02-28T00:43:28;162076.38;;;34.98;100.00
37298;BME280;30517;51.932;4.278;2023-02-28T00:46:09;162393.63;;;34.91;100.00
37298;BME280;30517;51.932;4.278;2023-02-28T00:48:53;162193.13;;;34.95;100.00
37298;BME280;30517;51.932;4.278;2023-02-28T00:51:34;162211.28;;;34.95;100.00
37298;BME280;30517;51.932;4.278;2023-02-28T00:54:15;162679.13;;;34.84;100.00
37298;BME280;30517;51.932;4.278;2023-02-28T00:56:56;162461.75;;;34.89;100.00
37298;BME280;30517;51.932;4.278;2023-02-28T00:59:37;162425.47;;;34.90;100.00
37298;BME280;30517;51.932;4.278;2023-02-28T01:02:17;162342.78;;;34.91;100.00
37298;BME280;30517;51.932;4.278;2023-02-28T01:05:00;162339.50;;;34.91;100.00
37298;BME280;30517;51.932;4.278;2023-02-28T01:07:40;162366.22;;;34.91;100.00
37298;BME280;30517;51.932;4.278;2023-02-28T01:10:21;162431.88;;;34.89;100.00
37298;BME280;30517;51.932;4.278;2023-02-28T01:13:02;162422.19;;;34.90;100.00
37298;BME280;30517;51.932;4.278;2023-02-28T01:15:49;162527.38;;;34.88;100.00
37298;BME280;30517;51.932;4.278;2023-02-28T01:18:31;162674.75;;;34.85;100.00
37298;BME280;30517;51.932;4.278;2023-02-28T01:21:14;162720.25;;;34.84;100.00
37298;BME280;30517;51.932;4.278;2023-02-28T01:23:57;162657.47;;;34.85;100.00
37298;BME280;30517;51.932;4.278;2023-02-28T01:26:37;162834.06;;;34.81;100.00
37298;BME280;30517;51.932;4.278;2023-02-28T01:29:18;162725.50;;;34.84;100.00
37298;BME280;30517;51.932;4.278;2023-02-28T01:31:59;162729.03;;;34.84;100.00
37298;BME280;30517;51.932;4.278;2023-02-28T01:34:43;162756.47;;;34.84;100.00
37298;BME280;30517;51.932;4.278;2023-02-28T01:37:24;162766.09;;;34.83;100.00
37298;BME280;30517;51.932;4.278;2023-02-28T01:40:05;162915.75;;;34.80;100.00
37298;BME280;30517;51.932;4.278;2023-02-28T01:42:46;162861.50;;;34.81;100.00
37298;BME280;30517;51.932;4.278;2023-02-28T01:45:31;162918.25;;;34.81;100.00
37298;BME280;30517;51.932;4.278;2023-02-28T01:48:12;162924.47;;;34.79;100.00
37298;BME280;30517;51.932;4.278;2023-02-28T01:50:54;163308.63;;;34.70;100.00
37298;BME280;30517;51.932;4.278;2023-02-28T01:53:44;162845.28;;;34.81;100.00
37298;BME280;30517;51.932;4.278;2023-02-28T01:56:29;162806.63;;;34.81;100.00
37298;BME280;30517;51.932;4.278;2023-02-28T01:59:14;162883.31;;;34.79;100.00
37298;BME280;30517;51.932;4.278;2023-02-28T02:01:57;163060.44;;;34.76;100.00
37298;BME280;30517;51.932;4.278;2023-02-28T02:04:51;162779.22;;;34.81;100.00
37298;BME280;30517;51.932;4.278;2023-02-28T02:07:39;163138.63;;;34.74;100.00
37298;BME280;30517;51.932;4.278;2023-02-28T02:10:27;163033.00;;;34.76;100.00
37298;BME280;30517;51.932;4.278;2023-02-28T02:19:52;163129.22;;;34.74;100.00
37298;BME280;30517;51.932;4.278;2023-02-28T02:25:42;163275.19;;;34.70;100.00
37298;BME280;30517;51.932;4.278;2023-02-28T02:34:37;162916.25;;;34.77;100.00
37298;BME280;30517;51.932;4.278;2023-02-28T02:37:31;162998.72;;;34.76;100.00
37298;BME280;30517;51.932;4.278;2023-02-28T02:40:21;162807.88;;;34.79;100.00
37298;BME280;30517;51.932;4.278;2023-02-28T02:43:30;162776.09;;;34.80;100.00
37298;BME280;30517;51.932;4.278;2023-02-28T02:46:21;163052.84;;;34.74;100.00
37298;BME280;30517;51.932;4.278;2023-02-28T02:49:07;162850.88;;;34.79;100.00
37298;BME280;30517;51.932;4.278;2023-02-28T02:51:51;162899.84;;;34.78;100.00
37298;BME280;30517;51.932;4.278;2023-02-28T02:54:40;163110.44;;;34.73;100.00
37298;BME280;30517;51.932;4.278;2023-02-28T02:57:30;162978.13;;;34.76;100.00
37298;BME280;30517;51.932;4.278;2023-02-28T03:00:13;162903.22;;;34.78;100.00
37298;BME280;30517;51.932;4.278;2023-02-28T03:02:56;163247.75;;;34.70;100.00
37298;BME280;30517;51.932;4.278;2023-02-28T03:05:50;162814.75;;;34.79;100.00
37298;BME280;30517;51.932;4.278;2023-02-28T03:08:37;162882.66;;;34.78;100.00
37298;BME280;30517;51.932;4.278;2023-02-28T03:11:18;162906.72;;;34.78;100.00
37298;BME280;30517;51.932;4.278;2023-02-28T03:20:07;162913.56;;;34.78;100.00
37298;BME280;30517;51.932;4.278;2023-02-28T03:26:04;163022.75;;;34.75;100.00
37298;BME280;30517;51.932;4.278;2023-02-28T03:29:03;163014.94;;;34.76;100.00
37298;BME280;30517;51.932;4.278;2023-02-28T03:31:51;163036.47;;;34.75;100.00
37298;BME280;30517;51.932;4.278;2023-02-28T03:34:38;163264.91;;;34.70;100.00
37298;BME280;30517;51.932;4.278;2023-02-28T03:37:22;162803.50;;;34.80;100.00
37298;BME280;30517;51.932;4.278;2023-02-28T03:40:08;162989.19;;;34.77;100.00
37298;BME280;30517;51.932;4.278;2023-02-28T03:42:57;162878.31;;;34.79;100.00
37298;BME280;30517;51.932;4.278;2023-02-28T03:45:41;162760.50;;;34.81;100.00
37298;BME280;30517;51.932;4.278;2023-02-28T03:48:30;162845.66;;;34.79;100.00
37298;BME280;30517;51.932;4.278;2023-02-28T03:51:15;162927.28;;;34.78;100.00
37298;BME280;30517;51.932;4.278;2023-02-28T03:54:03;162903.22;;;34.78;100.00
37298;BME280;30517;51.932;4.278;2023-02-28T03:56:51;162920.44;;;34.78;100.00
37298;BME280;30517;51.932;4.278;2023-02-28T03:59:38;162892.03;;;34.79;100.00
37298;BME280;30517;51.932;4.278;2023-02-28T04:02:20;162910.09;;;34.78;100.00
37298;BME280;30517;51.932;4.278;2023-02-28T04:05:01;162849.03;;;34.79;100.00
37298;BME280;30517;51.932;4.278;2023-02-28T04:07:42;162874.59;;;34.80;100.00
37298;BME280;30517;51.932;4.278;2023-02-28T04:10:22;162911.91;;;34.77;100.00
37298;BME280;30517;51.932;4.278;2023-02-28T04:13:03;162814.75;;;34.79;100.00
37298;BME280;30517;51.932;4.278;2023-02-28T04:15:44;162868.94;;;34.78;100.00
37298;BME280;30517;51.932;4.278;2023-02-28T04:18:25;162871.44;;;34.79;100.00
37298;BME280;30517;51.932;4.278;2023-02-28T04:21:06;162796.66;;;34.80;100.00
37298;BME280;30517;51.932;4.278;2023-02-28T04:23:47;162785.44;;;34.80;100.00
37298;BME280;30517;51.932;4.278;2023-02-28T04:26:30;162738.06;;;34.81;100.00
37298;BME280;30517;51.932;4.278;2023-02-28T04:29:12;162698.53;;;34.82;100.00
37298;BME280;30517;51.932;4.278;2023-02-28T04:31:54;162619.31;;;34.84;100.00
37298;BME280;30517;51.932;4.278;2023-02-28T04:34:37;162658.00;;;34.83;100.00
37298;BME280;30517;51.932;4.278;2023-02-28T04:37:18;162995.31;;;34.75;100.00
37298;BME280;30517;51.932;4.278;2023-02-28T04:40:03;162576.28;;;34.84;100.00
37298;BME280;30517;51.932;4.278;2023-02-28T04:42:47;162673.59;;;34.82;100.00
37298;BME280;30517;51.932;4.278;2023-02-28T04:45:28;162719.13;;;34.82;100.00
37298;BME280;30517;51.932;4.278;2023-02-28T04:48:12;163020.22;;;34.75;100.00
37298;BME280;30517;51.932;4.278;2023-02-28T04:50:53;162678.56;;;34.83;100.00
37298;BME280;30517;51.932;4.278;2023-02-28T04:53:34;162646.75;;;34.84;100.00
37298;BME280;30517;51.932;4.278;2023-02-28T04:56:16;162646.75;;;34.84;100.00
37298;BME280;30517;51.932;4.278;2023-02-28T04:58:57;162538.13;;;34.86;100.00
37298;BME280;30517;51.932;4.278;2023-02-28T05:01:38;163001.25;;;34.76;100.00
37298;BME280;30517;51.932;4.278;2023-02-28T05:04:19;162651.69;;;34.84;100.00
37298;BME280;30517;51.932;4.278;2023-02-28T05:07:00;162631.13;;;34.84;100.00
37298;BME280;30517;51.932;4.278;2023-02-28T05:09:41;162583.66;;;34.86;100.00
37298;BME280;30517;51.932;4.278;2023-02-28T05:12:22;166920.47;;;33.85;100.00
37298;BME280;30517;51.932;4.278;2023-02-28T05:15:03;162472.53;;;34.88;100.00
37298;BME280;30517;51.932;4.278;2023-02-28T05:17:45;162569.97;;;34.86;100.00
37298;BME280;30517;51.932;4.278;2023-02-28T05:20:25;162449.16;;;34.88;100.00
37298;BME280;30517;51.932;4.278;2023-02-28T05:23:08;162547.47;;;34.86;100.00
37298;BME280;30517;51.932;4.278;2023-02-28T05:25:49;162462.84;;;34.88;100.00
37298;BME280;30517;51.932;4.278;2023-02-28T05:28:31;162461.28;;;34.88;100.00
37298;BME280;30517;51.932;4.278;2023-02-28T05:31:13;162479.41;;;34.88;100.00
37298;BME280;30517;51.932;4.278;2023-02-28T05:33:54;162465.69;;;34.88;100.00
37298;BME280;30517;51.932;4.278;2023-02-28T05:36:36;161594.22;;;35.06;100.00
37298;BME280;30517;51.932;4.278;2023-02-28T05:39:17;162021.28;;;34.96;100.00
37298;BME280;30517;51.932;4.278;2023-02-28T05:41:58;161697.53;;;35.03;100.00
37298;BME280;30517;51.932;4.278;2023-02-28T05:44:39;162775.44;;;34.79;100.00
37298;BME280;30517;51.932;4.278;2023-02-28T05:47:20;162076.63;;;34.95;100.00
37298;BME280;30517;51.932;4.278;2023-02-28T05:50:01;162219.81;;;34.93;100.00
37298;BME280;30517;51.932;4.278;2023-02-28T05:52:42;162478.91;;;34.86;100.00
37298;BME280;30517;51.932;4.278;2023-02-28T05:55:23;162363.78;;;34.90;100.00
37298;BME280;30517;51.932;4.278;2023-02-28T05:58:03;162386.34;;;34.89;100.00
37298;BME280;30517;51.932;4.278;2023-02-28T06:00:44;162551.84;;;34.86;100.00
37298;BME280;30517;51.932;4.278;2023-02-28T06:03:26;163108.66;;;34.74;100.00
37298;BME280;30517;51.932;4.278;2023-02-28T06:06:07;162670.66;;;34.84;100.00
37298;BME280;30517;51.932;4.278;2023-02-28T06:08:47;162520.03;;;34.86;100.00
37298;BME280;30517;51.932;4.278;2023-02-28T06:11:28;162510.72;;;34.86;100.00
37298;BME280;30517;51.932;4.278;2023-02-28T06:14:16;162565.03;;;34.85;100.00
37298;BME280;30517;51.932;4.278;2023-02-28T06:16:57;162828.44;;;34.79;100.00
37298;BME280;30517;51.932;4.278;2023-02-28T06:19:38;162568.34;;;34.85;100.00
37298;BME280;30517;51.932;4.278;2023-02-28T06:22:20;162510.72;;;34.86;100.00
37298;BME280;30517;51.932;4.278;2023-02-28T06:25:01;162995.31;;;34.75;100.00
37298;BME280;30517;51.932;4.278;2023-02-28T06:27:42;162622.66;;;34.84;100.00
37298;BME280;30517;51.932;4.278;2023-02-28T06:30:23;162561.50;;;34.85;100.00
37298;BME280;30517;51.932;4.278;2023-02-28T06:33:06;162592.47;;;34.85;100.00
37298;BME280;30517;51.932;4.278;2023-02-28T06:35:50;162542.53;;;34.86;100.00
37298;BME280;30517;51.932;4.278;2023-02-28T06:38:31;162545.00;;;34.86;100.00
37298;BME280;30517;51.932;4.278;2023-02-28T06:41:12;162474.50;;;34.87;100.00
37298;BME280;30517;51.932;4.278;2023-02-28T06:43:53;162814.75;;;34.79;100.00
37298;BME280;30517;51.932;4.278;2023-02-28T06:46:34;162515.63;;;34.87;100.00
37298;BME280;30517;51.932;4.278;2023-02-28T06:49:16;162515.63;;;34.87;100.00
37298;BME280;30517;51.932;4.278;2023-02-28T06:51:57;162428.59;;;34.88;100.00
37298;BME280;30517;51.932;4.278;2023-02-28T06:54:37;162593.00;;;34.86;100.00
37298;BME280;30517;51.932;4.278;2023-02-28T06:57:18;162365.78;;;34.89;100.00
37298;BME280;30517;51.932;4.278;2023-02-28T07:00:00;162386.34;;;34.89;100.00
37298;BME280;30517;51.932;4.278;2023-02-28T07:02:43;162318.94;;;34.91;100.00
37298;BME280;30517;51.932;4.278;2023-02-28T07:05:23;162442.28;;;34.88;100.00
37298;BME280;30517;51.932;4.278;2023-02-28T07:08:05;162461.28;;;34.88;100.00
37298;BME280;30517;51.932;4.278;2023-02-28T07:10:46;162406.91;;;34.89;100.00
37298;BME280;30517;51.932;4.278;2023-02-28T07:13:27;162415.31;;;34.90;100.00
37298;BME280;30517;51.932;4.278;2023-02-28T07:16:10;162366.22;;;34.91;100.00
37298;BME280;30517;51.932;4.278;2023-02-28T07:18:52;162415.31;;;34.90;100.00
37298;BME280;30517;51.932;4.278;2023-02-28T07:21:33;162527.38;;;34.88;100.00
37298;BME280;30517;51.932;4.278;2023-02-28T07:24:14;162393.63;;;34.91;100.00
37298;BME280;30517;51.932;4.278;2023-02-28T07:26:56;162393.63;;;34.91;100.00
37298;BME280;30517;51.932;4.278;2023-02-28T07:29:37;162476.56;;;34.88;100.00
37298;BME280;30517;51.932;4.278;2023-02-28T07:32:19;162238.34;;;34.93;100.00
37298;BME280;30517;51.932;4.278;2023-02-28T07:34:59;162401.19;;;34.91;100.00
37298;BME280;30517;51.932;4.278;2023-02-28T07:37:41;162302.06;;;34.93;100.00
37298;BME280;30517;51.932;4.278;2023-02-28T07:40:22;162295.19;;;34.93;100.00
37298;BME280;30517;51.932;4.278;2023-02-28T07:43:03;162130.91;;;34.96;100.00
37298;BME280;30517;51.932;4.278;2023-02-28T07:45:44;162261.31;;;34.94;100.00
37298;BME280;30517;51.932;4.278;2023-02-28T07:48:25;162247.59;;;34.94;100.00
37298;BME280;30517;51.932;4.278;2023-02-28T07:51:06;162133.28;;;34.97;100.00
37298;BME280;30517;51.932;4.278;2023-02-28T07:53:47;162133.28;;;34.97;100.00
37298;BME280;30517;51.932;4.278;2023-02-28T07:56:27;162439.19;;;34.90;100.00
37298;BME280;30517;51.932;4.278;2023-02-28T07:59:13;164825.69;;;34.35;100.00
37298;BME280;30517;51.932;4.278;2023-02-28T08:01:54;162247.94;;;34.95;100.00
37298;BME280;30517;51.932;4.278;2023-02-28T08:04:34;162069.78;;;34.99;100.00
37298;BME280;30517;51.932;4.278;2023-02-28T08:07:16;162074.28;;;34.98;100.00
37298;BME280;30517;51.932;4.278;2023-02-28T08:09:57;162042.38;;;34.99;100.00
37298;BME280;30517;51.932;4.278;2023-02-28T08:12:38;162051.59;;;34.99;100.00
37298;BME280;30517;51.932;4.278;2023-02-28T08:15:19;162160.69;;;34.97;100.00
37298;BME280;30517;51.932;4.278;2023-02-28T08:18:00;161964.25;;;35.01;100.00
37298;BME280;30517;51.932;4.278;2023-02-28T08:20:40;162058.44;;;34.99;100.00
37298;BME280;30517;51.932;4.278;2023-02-28T08:23:21;162119.88;;;34.98;100.00
37298;BME280;30517;51.932;4.278;2023-02-28T08:26:03;162021.22;;;35.00;100.00
37298;BME280;30517;51.932;4.278;2023-02-28T08:28:44;162087.97;;;34.98;100.00
37298;BME280;30517;51.932;4.278;2023-02-28T08:31:24;162069.78;;;34.99;100.00
37298;BME280;30517;51.932;4.278;2023-02-28T08:34:09;162041.75;;;35.00;100.00
37298;BME280;30517;51.932;4.278;2023-02-28T08:36:51;165171.50;;;34.28;100.00
37298;BME280;30517;51.932;4.278;2023-02-28T08:39:36;161843.66;;;35.04;100.00
37298;BME280;30517;51.932;4.278;2023-02-28T08:42:17;161629.47;;;35.08;100.00
37298;BME280;30517;51.932;4.278;2023-02-28T08:44:57;161663.66;;;35.07;100.00
37298;BME280;30517;51.932;4.278;2023-02-28T08:47:38;161677.34;;;35.07;100.00
37298;BME280;30517;51.932;4.278;2023-02-28T08:50:19;161595.25;;;35.08;100.00
37298;BME280;30517;51.932;4.278;2023-02-28T08:53:00;161753.94;;;35.05;100.00
37298;BME280;30517;51.932;4.278;2023-02-28T08:55:41;161710.63;;;35.06;100.00
37298;BME280;30517;51.932;4.278;2023-02-28T08:58:22;161699.25;;;35.06;100.00
37298;BME280;30517;51.932;4.278;2023-02-28T09:01:14;161753.94;;;35.05;100.00
37298;BME280;30517;51.932;4.278;2023-02-28T09:03:56;161639.94;;;35.07;100.00
37298;BME280;30517;51.932;4.278;2023-02-28T09:06:37;161710.63;;;35.06;100.00
37298;BME280;30517;51.932;4.278;2023-02-28T09:09:18;161574.72;;;35.08;100.00
37298;BME280;30517;51.932;4.278;2023-02-28T09:11:59;161976.25;;;34.99;100.00
37298;BME280;30517;51.932;4.278;2023-02-28T09:14:40;161608.88;;;35.07;100.00
37298;BME280;30517;51.932;4.278;2023-02-28T09:17:21;161589.78;;;35.07;100.00
37298;BME280;30517;51.932;4.278;2023-02-28T09:20:01;161785.25;;;35.04;100.00
37298;BME280;30517;51.932;4.278;2023-02-28T09:22:42;162046.88;;;34.98;100.00
37298;BME280;30517;51.932;4.278;2023-02-28T09:25:23;161764.69;;;35.04;100.00
37298;BME280;30517;51.932;4.278;2023-02-28T09:28:04;162556.25;;;34.86;100.00
37298;BME280;30517;51.932;4.278;2023-02-28T09:30:47;162254.09;;;34.93;100.00
37298;BME280;30517;51.932;4.278;2023-02-28T09:33:28;162000.66;;;35.00;100.00
37298;BME280;30517;51.932;4.278;2023-02-28T09:36:09;162461.75;;;34.89;100.00
37298;BME280;30517;51.932;4.278;2023-02-28T09:38:49;161985.47;;;35.00;100.00
37298;BME280;30517;51.932;4.278;2023-02-28T09:41:42;162071.91;;;34.98;100.00
37298;BME280;30517;51.932;4.278;2023-02-28T09:47:31;161999.16;;;35.00;100.00
37298;BME280;30517;51.932;4.278;2023-02-28T09:53:19;162019.47;;;34.98;100.00
37298;BME280;30517;51.932;4.278;2023-02-28T09:56:03;162324.63;;;34.92;100.00
37298;BME280;30517;51.932;4.278;2023-02-28T09:58:47;161909.47;;;35.01;100.00
37298;BME280;30517;51.932;4.278;2023-02-28T10:01:39;161854.88;;;35.02;100.00
37298;BME280;30517;51.932;4.278;2023-02-28T10:10:32;161827.66;;;35.03;100.00
37298;BME280;30517;51.932;4.278;2023-02-28T10:13:41;161683.25;;;35.06;100.00
37298;BME280;30517;51.932;4.278;2023-02-28T10:16:31;161710.63;;;35.06;100.00
37298;BME280;30517;51.932;4.278;2023-02-28T10:19:20;161653.63;;;35.07;100.00
37298;BME280;30517;51.932;4.278;2023-02-28T10:22:14;161610.31;;;35.07;100.00
37298;BME280;30517;51.932;4.278;2023-02-28T10:24:57;162042.13;;;34.98;100.00
37298;BME280;30517;51.932;4.278;2023-02-28T10:27:42;161554.19;;;35.08;100.00
37298;BME280;30517;51.932;4.278;2023-02-28T10:30:24;161548.75;;;35.09;100.00
37298;BME280;30517;51.932;4.278;2023-02-28T10:33:05;161809.28;;;35.02;100.00
37298;BME280;30517;51.932;4.278;2023-02-28T10:35:45;161430.16;;;35.11;100.00
37298;BME280;30517;51.932;4.278;2023-02-28T10:38:31;161423.28;;;35.11;100.00
37298;BME280;30517;51.932;4.278;2023-02-28T10:41:15;161299.19;;;35.13;100.00
37298;BME280;30517;51.932;4.278;2023-02-28T10:44:13;161285.50;;;35.13;100.00
37298;BME280;30517;51.932;4.278;2023-02-28T10:46:54;161288.63;;;35.14;100.00
37298;BME280;30517;51.932;4.278;2023-02-28T10:49:36;161120.16;;;35.17;100.00
37298;BME280;30517;51.932;4.278;2023-02-28T10:52:39;161268.09;;;35.14;100.00
37298;BME280;30517;51.932;4.278;2023-02-28T10:55:23;161333.44;;;35.12;100.00
37298;BME280;30517;51.932;4.278;2023-02-28T10:58:21;161168.13;;;35.16;100.00
37298;BME280;30517;51.932;4.278;2023-02-28T11:01:02;161662.56;;;35.05;100.00
37298;BME280;30517;51.932;4.278;2023-02-28T11:03:43;161090.53;;;35.16;100.00
37298;BME280;30517;51.932;4.278;2023-02-28T11:06:28;161172.75;;;35.15;100.00
37298;BME280;30517;51.932;4.278;2023-02-28T11:09:38;161948.59;;;34.98;100.00
37298;BME280;30517;51.932;4.278;2023-02-28T11:12:23;161154.47;;;35.16;100.00
37298;BME280;30517;51.932;4.278;2023-02-28T11:20:59;161083.69;;;35.16;100.00
37298;BME280;30517;51.932;4.278;2023-02-28T11:23:42;161334.31;;;35.11;100.00
37298;BME280;30517;51.932;4.278;2023-02-28T11:26:47;161003.69;;;35.18;100.00
37298;BME280;30517;51.932;4.278;2023-02-28T11:29:32;160976.31;;;35.18;100.00
37298;BME280;30517;51.932;4.278;2023-02-28T11:32:20;160913.72;;;35.19;100.00
37298;BME280;30517;51.932;4.278;2023-02-28T11:37:51;160833.66;;;35.21;100.00
37298;BME280;30517;51.932;4.278;2023-02-28T11:40:56;160729.75;;;35.23;100.00
37298;BME280;30517;51.932;4.278;2023-02-28T11:46:51;160642.75;;;35.25;100.00
37298;BME280;30517;51.932;4.278;2023-02-28T11:52:45;160553.56;;;35.26;100.00
37298;BME280;30517;51.932;4.278;2023-02-28T11:55:35;160553.56;;;35.26;100.00
37298;BME280;30517;51.932;4.278;2023-02-28T11:58:31;160481.81;;;35.27;100.00
37298;BME280;30517;51.932;4.278;2023-02-28T12:03:59;160157.69;;;35.33;100.00
37298;BME280;30517;51.932;4.278;2023-02-28T12:10:00;159783.81;;;35.41;100.00
37298;BME280;30517;51.932;4.278;2023-02-28T12:16:20;159795.38;;;35.40;100.00
37298;BME280;30517;51.932;4.278;2023-02-28T12:19:17;159931.06;;;35.38;100.00
37298;BME280;30517;51.932;4.278;2023-02-28T12:22:12;159761.22;;;35.40;100.00
37298;BME280;30517;51.932;4.278;2023-02-28T12:27:48;159385.78;;;35.48;93.54
37298;BME280;30517;51.932;4.278;2023-02-28T12:30:31;159241.97;;;35.51;90.59
37298;BME280;30517;51.932;4.278;2023-02-28T12:33:14;159358.44;;;35.48;93.54
37298;BME280;30517;51.932;4.278;2023-02-28T12:35:59;159033.78;;;35.54;87.29
37298;BME280;30517;51.932;4.278;2023-02-28T12:41:34;159337.97;;;35.48;93.54
37298;BME280;30517;51.932;4.278;2023-02-28T12:44:26;158857.59;;;35.58;83.98
37298;BME280;30517;51.932;4.278;2023-02-28T12:47:14;158624.78;;;35.62;79.64
37298;BME280;30517;51.932;4.278;2023-02-28T12:50:03;159017.06;;;35.54;87.95
37298;BME280;30517;51.932;4.278;2023-02-28T12:53:06;158517.53;;;35.64;77.65
37298;BME280;30517;51.932;4.278;2023-02-28T12:56:14;158416.06;;;35.66;76.02
37298;BME280;30517;51.932;4.278;2023-02-28T13:05:26;158016.75;;;35.73;69.00
37298;BME280;30517;51.932;4.278;2023-02-28T13:11:32;157707.56;;;35.79;63.35
37298;BME280;30517;51.932;4.278;2023-02-28T13:17:21;157586.25;;;35.81;61.35
37298;BME280;30517;51.932;4.278;2023-02-28T13:20:02;157689.41;;;35.78;64.02
37298;BME280;30517;51.932;4.278;2023-02-28T13:22:46;157464.88;;;35.83;59.34
37298;BME280;30517;51.932;4.278;2023-02-28T13:31:29;157176.94;;;35.88;54.29
37298;BME280;30517;51.932;4.278;2023-02-28T13:34:15;157152.34;;;35.89;53.98
37298;BME280;30517;51.932;4.278;2023-02-28T13:42:48;156877.69;;;35.94;49.28
37298;BME280;30517;51.932;4.278;2023-02-28T13:45:30;158153.06;;;35.65;76.99
37298;BME280;30517;51.932;4.278;2023-02-28T13:48:19;156754.28;;;35.95;47.57
37298;BME280;30517;51.932;4.278;2023-02-28T14:00:16;156574.50;;;36.00;42.85
37298;BME280;30517;51.932;4.278;2023-02-28T14:06:27;156387.13;;;36.03;40.15
37298;BME280;30517;51.932;4.278;2023-02-28T14:09:28;156356.41;;;36.04;39.49
37298;BME280;30517;51.932;4.278;2023-02-28T14:18:31;156240.38;;;36.06;37.45
37298;BME280;30517;51.932;4.278;2023-02-28T14:21:21;156132.88;;;36.08;35.43
37298;BME280;30517;51.932;4.278;2023-02-28T14:30:00;156018.34;;;36.10;33.08
37298;BME280;30517;51.932;4.278;2023-02-28T14:33:34;156189.22;;;36.07;36.78
37298;BME280;30517;51.932;4.278;2023-02-28T14:36:21;155813.28;;;36.14;29.33
37298;BME280;30517;51.932;4.278;2023-02-28T14:39:07;155568.78;;;36.18;25.26
37298;BME280;30517;51.932;4.278;2023-02-28T14:41:51;155179.63;;;36.26;17.47
37298;BME280;30517;51.932;4.278;2023-02-28T14:44:32;155006.31;;;36.29;14.05
37298;BME280;30517;51.932;4.278;2023-02-28T14:47:15;154909.97;;;36.31;12.01
37298;BME280;30517;51.932;4.278;2023-02-28T14:49:56;154628.66;;;36.37;6.54
37298;BME280;30517;51.932;4.278;2023-02-28T14:52:37;154434.47;;;36.41;3.12
37298;BME280;30517;51.932;4.278;2023-02-28T14:55:23;154087.31;;;36.47;0.00
37298;BME280;30517;51.932;4.278;2023-02-28T14:58:06;153829.31;;;36.52;0.00
37298;BME280;30517;51.932;4.278;2023-02-28T15:00:49;153956.13;;;36.49;0.00
37298;BME280;30517;51.932;4.278;2023-02-28T15:03:32;153421.25;;;36.60;0.00
37298;BME280;30517;51.932;4.278;2023-02-28T15:06:15;153122.97;;;36.65;0.00
37298;BME280;30517;51.932;4.278;2023-02-28T15:09:08;153116.19;;;36.65;0.00
37298;BME280;30517;51.932;4.278;2023-02-28T15:11:49;152630.19;;;36.75;0.00
37298;BME280;30517;51.932;4.278;2023-02-28T15:14:31;152174.63;;;36.84;0.00
37298;BME280;30517;51.932;4.278;2023-02-28T15:17:19;151644.06;;;36.94;0.00
37298;BME280;30517;51.932;4.278;2023-02-28T15:20:03;151277.97;;;37.00;0.00
37298;BME280;30517;51.932;4.278;2023-02-28T15:22:46;150833.09;;;37.10;0.00
37298;BME280;30517;51.932;4.278;2023-02-28T15:25:28;150496.72;;;37.16;0.00
37298;BME280;30517;51.932;4.278;2023-02-28T15:28:15;150055.91;;;37.25;0.00
37298;BME280;30517;51.932;4.278;2023-02-28T15:31:02;149434.88;;;37.35;0.00
37298;BME280;30517;51.932;4.278;2023-02-28T15:33:53;149169.91;;;37.41;0.00
37298;BME280;30517;51.932;4.278;2023-02-28T15:36:34;148791.88;;;37.48;0.00
37298;BME280;30517;51.932;4.278;2023-02-28T15:39:20;148272.06;;;37.58;0.00
37298;BME280;30517;51.932;4.278;2023-02-28T15:42:12;148258.59;;;37.58;0.00
37298;BME280;30517;51.932;4.278;2023-02-28T15:44:53;147624.84;;;37.70;0.00
37298;BME280;30517;51.932;4.278;2023-02-28T15:47:35;147196.75;;;37.78;0.00
37298;BME280;30517;51.932;4.278;2023-02-28T15:50:16;146815.00;;;37.85;0.00
37298;BME280;30517;51.932;4.278;2023-02-28T15:53:00;146438.88;;;37.92;0.00
37298;BME280;30517;51.932;4.278;2023-02-28T15:55:41;146101.72;;;37.98;0.00
37298;BME280;30517;51.932;4.278;2023-02-28T15:58:22;145838.63;;;38.03;0.00
37298;BME280;30517;51.932;4.278;2023-02-28T16:01:07;145697.19;;;38.06;0.00
37298;BME280;30517;51.932;4.278;2023-02-28T16:03:50;146451.28;;;37.90;0.00
37298;BME280;30517;51.932;4.278;2023-02-28T16:09:16;145697.25;;;38.05;0.00